sensor_id;sensor_type;location;lat;lon;timestamp;P1;durP1;ratioP1;P2;durP2;ratioP2
2123;SDS011;1068;52.460;13.528;2023-05-16T00:02:08;8.20;;;7.40;;
2123;SDS011;1068;52.460;13.528;2023-05-16T00:04:35;8.10;;;7.43;;
2123;SDS011;1068;52.460;13.528;2023-05-16T00:07:02;8.07;;;7.27;;
2123;SDS011;1068;52.460;13.528;2023-05-16T00:09:30;7.07;;;6.57;;
2123;SDS011;1068;52.460;13.528;2023-05-16T00:11:58;7.63;;;6.90;;
2123;SDS011;1068;52.460;13.528;2023-05-16T00:14:25;7.83;;;7.23;;
2123;SDS011;1068;52.460;13.528;2023-05-16T00:16:52;7.90;;;7.20;;
2123;SDS011;1068;52.460;13.528;2023-05-16T00:19:21;7.73;;;7.03;;
2123;SDS011;1068;52.460;13.528;2023-05-16T00:21:48;8.13;;;7.43;;
2123;SDS011;1068;52.460;13.528;2023-05-16T00:24:15;8.87;;;7.20;;
2123;SDS011;1068;52.460;13.528;2023-05-16T00:26:42;7.40;;;6.80;;
2123;SDS011;1068;52.460;13.528;2023-05-16T00:29:10;7.90;;;7.10;;
2123;SDS011;1068;52.460;13.528;2023-05-16T00:31:37;8.87;;;8.07;;
2123;SDS011;1068;52.460;13.528;2023-05-16T00:34:04;8.67;;;7.87;;
2123;SDS011;1068;52.460;13.528;2023-05-16T00:36:31;8.30;;;7.60;;
2123;SDS011;1068;52.460;13.528;2023-05-16T00:38:59;7.60;;;7.10;;
2123;SDS011;1068;52.460;13.528;2023-05-16T00:41:26;8.10;;;7.50;;
2123;SDS011;1068;52.460;13.528;2023-05-16T00:43:53;7.63;;;7.03;;
2123;SDS011;1068;52.460;13.528;2023-05-16T00:46:21;7.40;;;6.70;;
2123;SDS011;1068;52.460;13.528;2023-05-16T00:48:48;7.83;;;7.23;;
2123;SDS011;1068;52.460;13.528;2023-05-16T00:51:16;9.17;;;7.83;;
2123;SDS011;1068;52.460;13.528;2023-05-16T00:53:43;8.37;;;7.70;;
2123;SDS011;1068;52.460;13.528;2023-05-16T00:56:10;8.23;;;7.30;;
2123;SDS011;1068;52.460;13.528;2023-05-16T00:58:37;8.60;;;7.90;;
2123;SDS011;1068;52.460;13.528;2023-05-16T01:01:04;11.53;;;7.67;;
2123;SDS011;1068;52.460;13.528;2023-05-16T01:03:33;9.47;;;8.70;;
2123;SDS011;1068;52.460;13.528;2023-05-16T01:06:00;10.30;;;7.90;;
2123;SDS011;1068;52.460;13.528;2023-05-16T01:08:27;9.87;;;8.70;;
2123;SDS011;1068;52.460;13.528;2023-05-16T01:10:57;8.90;;;8.20;;
2123;SDS011;1068;52.460;13.528;2023-05-16T01:13:27;10.17;;;8.90;;
2123;SDS011;1068;52.460;13.528;2023-05-16T01:15:58;9.33;;;8.60;;
2123;SDS011;1068;52.460;13.528;2023-05-16T01:18:28;9.57;;;8.77;;
2123;SDS011;1068;52.460;13.528;2023-05-16T01:20:58;8.57;;;7.90;;
2123;SDS011;1068;52.460;13.528;2023-05-16T01:23:32;13.47;;;8.70;;
2123;SDS011;1068;52.460;13.528;2023-05-16T01:26:11;9.20;;;8.50;;
2123;SDS011;1068;52.460;13.528;2023-05-16T01:28:38;9.43;;;8.53;;
2123;SDS011;1068;52.460;13.528;2023-05-16T01:31:06;9.40;;;8.70;;
2123;SDS011;1068;52.460;13.528;2023-05-16T01:33:33;9.40;;;8.60;;
2123;SDS011;1068;52.460;13.528;2023-05-16T01:36:02;9.00;;;8.27;;
2123;SDS011;1068;52.460;13.528;2023-05-16T01:38:32;9.60;;;8.90;;
2123;SDS011;1068;52.460;13.528;2023-05-16T01:41:03;9.57;;;8.77;;
2123;SDS011;1068;52.460;13.528;2023-05-16T01:43:34;10.87;;;10.07;;
2123;SDS011;1068;52.460;13.528;2023-05-16T01:46:02;12.20;;;11.00;;
2123;SDS011;1068;52.460;13.528;2023-05-16T01:48:31;11.57;;;10.17;;
2123;SDS011;1068;52.460;13.528;2023-05-16T01:51:01;11.30;;;10.30;;
2123;SDS011;1068;52.460;13.528;2023-05-16T01:53:31;11.37;;;10.47;;
2123;SDS011;1068;52.460;13.528;2023-05-16T01:56:00;12.20;;;11.10;;
2123;SDS011;1068;52.460;13.528;2023-05-16T01:58:29;13.00;;;11.90;;
2123;SDS011;1068;52.460;13.528;2023-05-16T02:01:00;13.77;;;12.10;;
2123;SDS011;1068;52.460;13.528;2023-05-16T02:03:27;16.20;;;11.90;;
2123;SDS011;1068;52.460;13.528;2023-05-16T02:05:54;15.13;;;13.67;;
2123;SDS011;1068;52.460;13.528;2023-05-16T02:08:21;14.23;;;12.93;;
2123;SDS011;1068;52.460;13.528;2023-05-16T02:10:48;17.37;;;15.10;;
2123;SDS011;1068;52.460;13.528;2023-05-16T02:13:15;17.30;;;15.60;;
2123;SDS011;1068;52.460;13.528;2023-05-16T02:15:42;18.53;;;15.63;;
2123;SDS011;1068;52.460;13.528;2023-05-16T02:18:10;16.97;;;15.43;;
2123;SDS011;1068;52.460;13.528;2023-05-16T02:20:37;21.70;;;14.30;;
2123;SDS011;1068;52.460;13.528;2023-05-16T02:23:04;15.67;;;14.27;;
2123;SDS011;1068;52.460;13.528;2023-05-16T02:25:31;17.20;;;15.40;;
2123;SDS011;1068;52.460;13.528;2023-05-16T02:27:58;15.33;;;13.83;;
2123;SDS011;1068;52.460;13.528;2023-05-16T02:30:25;18.33;;;16.63;;
2123;SDS011;1068;52.460;13.528;2023-05-16T02:32:52;18.00;;;16.20;;
2123;SDS011;1068;52.460;13.528;2023-05-16T02:35:20;17.20;;;14.70;;
2123;SDS011;1068;52.460;13.528;2023-05-16T02:37:47;16.37;;;14.83;;
2123;SDS011;1068;52.460;13.528;2023-05-16T02:40:14;18.63;;;15.63;;
2123;SDS011;1068;52.460;13.528;2023-05-16T02:42:41;17.00;;;15.33;;
2123;SDS011;1068;52.460;13.528;2023-05-16T02:45:09;16.53;;;13.97;;
2123;SDS011;1068;52.460;13.528;2023-05-16T02:47:36;15.77;;;14.17;;
2123;SDS011;1068;52.460;13.528;2023-05-16T02:50:03;17.13;;;14.37;;
2123;SDS011;1068;52.460;13.528;2023-05-16T02:52:31;15.73;;;14.13;;
2123;SDS011;1068;52.460;13.528;2023-05-16T02:54:58;17.80;;;13.50;;
2123;SDS011;1068;52.460;13.528;2023-05-16T02:57:25;15.93;;;12.57;;
2123;SDS011;1068;52.460;13.528;2023-05-16T02:59:52;16.57;;;15.03;;
2123;SDS011;1068;52.460;13.528;2023-05-16T03:02:19;15.97;;;14.33;;
2123;SDS011;1068;52.460;13.528;2023-05-16T03:04:46;14.87;;;13.57;;
2123;SDS011;1068;52.460;13.528;2023-05-16T03:07:13;15.73;;;14.37;;
2123;SDS011;1068;52.460;13.528;2023-05-16T03:09:41;15.33;;;13.90;;
2123;SDS011;1068;52.460;13.528;2023-05-16T03:12:08;15.57;;;14.07;;
2123;SDS011;1068;52.460;13.528;2023-05-16T03:14:35;17.50;;;13.30;;
2123;SDS011;1068;52.460;13.528;2023-05-16T03:17:02;14.90;;;12.50;;
2123;SDS011;1068;52.460;13.528;2023-05-16T03:19:29;13.57;;;12.10;;
2123;SDS011;1068;52.460;13.528;2023-05-16T03:21:55;14.23;;;12.83;;
2123;SDS011;1068;52.460;13.528;2023-05-16T03:24:22;15.43;;;13.97;;
2123;SDS011;1068;52.460;13.528;2023-05-16T03:26:51;13.67;;;12.37;;
2123;SDS011;1068;52.460;13.528;2023-05-16T03:29:18;16.77;;;13.60;;
2123;SDS011;1068;52.460;13.528;2023-05-16T03:31:45;14.77;;;12.70;;
2123;SDS011;1068;52.460;13.528;2023-05-16T03:34:12;15.47;;;13.87;;
2123;SDS011;1068;52.460;13.528;2023-05-16T03:36:39;15.63;;;14.07;;
2123;SDS011;1068;52.460;13.528;2023-05-16T03:39:08;14.50;;;13.00;;
2123;SDS011;1068;52.460;13.528;2023-05-16T03:41:35;14.40;;;12.97;;
2123;SDS011;1068;52.460;13.528;2023-05-16T03:44:03;15.13;;;13.50;;
2123;SDS011;1068;52.460;13.528;2023-05-16T03:46:30;13.90;;;12.27;;
2123;SDS011;1068;52.460;13.528;2023-05-16T03:48:57;14.33;;;12.90;;
2123;SDS011;1068;52.460;13.528;2023-05-16T03:51:24;15.10;;;13.70;;
2123;SDS011;1068;52.460;13.528;2023-05-16T03:53:52;15.83;;;14.13;;
2123;SDS011;1068;52.460;13.528;2023-05-16T03:56:18;15.23;;;13.83;;
2123;SDS011;1068;52.460;13.528;2023-05-16T03:58:46;17.23;;;14.50;;
2123;SDS011;1068;52.460;13.528;2023-05-16T04:01:14;15.17;;;13.53;;
2123;SDS011;1068;52.460;13.528;2023-05-16T04:03:41;15.47;;;13.83;;
2123;SDS011;1068;52.460;13.528;2023-05-16T04:06:08;15.47;;;13.73;;
2123;SDS011;1068;52.460;13.528;2023-05-16T04:08:35;15.90;;;12.63;;
2123;SDS011;1068;52.460;13.528;2023-05-16T04:11:03;14.93;;;13.40;;
2123;SDS011;1068;52.460;13.528;2023-05-16T04:13:30;16.87;;;13.27;;
2123;SDS011;1068;52.460;13.528;2023-05-16T04:15:57;15.00;;;13.57;;
2123;SDS011;1068;52.460;13.528;2023-05-16T04:18:25;15.70;;;14.20;;
2123;SDS011;1068;52.460;13.528;2023-05-16T04:20:52;15.30;;;12.83;;
2123;SDS011;1068;52.460;13.528;2023-05-16T04:23:19;15.57;;;14.07;;
2123;SDS011;1068;52.460;13.528;2023-05-16T04:25:46;16.63;;;14.50;;
2123;SDS011;1068;52.460;13.528;2023-05-16T04:28:14;20.03;;;14.07;;
2123;SDS011;1068;52.460;13.528;2023-05-16T04:30:41;16.90;;;15.13;;
2123;SDS011;1068;52.460;13.528;2023-05-16T04:33:08;17.07;;;15.43;;
2123;SDS011;1068;52.460;13.528;2023-05-16T04:35:36;15.80;;;14.17;;
2123;SDS011;1068;52.460;13.528;2023-05-16T04:38:03;15.87;;;14.13;;
2123;SDS011;1068;52.460;13.528;2023-05-16T04:40:30;15.60;;;13.97;;
2123;SDS011;1068;52.460;13.528;2023-05-16T04:42:57;16.00;;;14.40;;
2123;SDS011;1068;52.460;13.528;2023-05-16T04:45:24;16.20;;;13.53;;
2123;SDS011;1068;52.460;13.528;2023-05-16T04:47:51;15.87;;;14.30;;
2123;SDS011;1068;52.460;13.528;2023-05-16T04:50:18;18.47;;;15.27;;
2123;SDS011;1068;52.460;13.528;2023-05-16T04:52:47;16.87;;;15.27;;
2123;SDS011;1068;52.460;13.528;2023-05-16T04:55:13;15.63;;;14.20;;
2123;SDS011;1068;52.460;13.528;2023-05-16T04:57:40;15.90;;;14.20;;
2123;SDS011;1068;52.460;13.528;2023-05-16T05:00:08;16.67;;;14.90;;
2123;SDS011;1068;52.460;13.528;2023-05-16T05:02:36;17.70;;;15.67;;
2123;SDS011;1068;52.460;13.528;2023-05-16T05:05:03;17.93;;;16.13;;
2123;SDS011;1068;52.460;13.528;2023-05-16T05:07:31;17.47;;;15.37;;
2123;SDS011;1068;52.460;13.528;2023-05-16T05:09:59;15.90;;;14.30;;
2123;SDS011;1068;52.460;13.528;2023-05-16T05:12:26;17.00;;;14.80;;
2123;SDS011;1068;52.460;13.528;2023-05-16T05:14:53;16.27;;;14.67;;
2123;SDS011;1068;52.460;13.528;2023-05-16T05:17:21;16.40;;;14.17;;
2123;SDS011;1068;52.460;13.528;2023-05-16T05:19:48;23.30;;;14.80;;
2123;SDS011;1068;52.460;13.528;2023-05-16T05:22:15;16.90;;;14.60;;
2123;SDS011;1068;52.460;13.528;2023-05-16T05:24:42;16.77;;;15.03;;
2123;SDS011;1068;52.460;13.528;2023-05-16T05:27:10;15.13;;;13.60;;
2123;SDS011;1068;52.460;13.528;2023-05-16T05:29:37;15.03;;;13.17;;
2123;SDS011;1068;52.460;13.528;2023-05-16T05:32:04;15.57;;;14.00;;
2123;SDS011;1068;52.460;13.528;2023-05-16T05:34:32;15.53;;;14.03;;
2123;SDS011;1068;52.460;13.528;2023-05-16T05:36:59;15.63;;;13.80;;
2123;SDS011;1068;52.460;13.528;2023-05-16T05:39:26;15.53;;;13.30;;
2123;SDS011;1068;52.460;13.528;2023-05-16T05:41:53;16.67;;;15.07;;
2123;SDS011;1068;52.460;13.528;2023-05-16T05:44:21;16.50;;;14.80;;
2123;SDS011;1068;52.460;13.528;2023-05-16T05:46:48;18.10;;;15.80;;
2123;SDS011;1068;52.460;13.528;2023-05-16T05:49:15;18.30;;;15.00;;
2123;SDS011;1068;52.460;13.528;2023-05-16T05:51:42;17.10;;;15.30;;
2123;SDS011;1068;52.460;13.528;2023-05-16T05:54:09;17.03;;;15.27;;
2123;SDS011;1068;52.460;13.528;2023-05-16T05:56:35;15.50;;;13.97;;
2123;SDS011;1068;52.460;13.528;2023-05-16T05:59:02;14.97;;;13.40;;
2123;SDS011;1068;52.460;13.528;2023-05-16T06:01:31;16.70;;;13.67;;
2123;SDS011;1068;52.460;13.528;2023-05-16T06:03:57;16.83;;;15.20;;
2123;SDS011;1068;52.460;13.528;2023-05-16T06:06:24;18.57;;;15.10;;
2123;SDS011;1068;52.460;13.528;2023-05-16T06:08:51;17.80;;;16.10;;
2123;SDS011;1068;52.460;13.528;2023-05-16T06:11:18;20.33;;;15.77;;
2123;SDS011;1068;52.460;13.528;2023-05-16T06:13:45;16.70;;;15.10;;
2123;SDS011;1068;52.460;13.528;2023-05-16T06:16:12;20.77;;;16.03;;
2123;SDS011;1068;52.460;13.528;2023-05-16T06:18:42;18.50;;;16.50;;
2123;SDS011;1068;52.460;13.528;2023-05-16T06:21:09;19.33;;;16.50;;
2123;SDS011;1068;52.460;13.528;2023-05-16T06:23:36;18.97;;;16.07;;
2123;SDS011;1068;52.460;13.528;2023-05-16T06:26:03;18.00;;;15.10;;
2123;SDS011;1068;52.460;13.528;2023-05-16T06:28:30;15.57;;;13.97;;
2123;SDS011;1068;52.460;13.528;2023-05-16T06:30:57;15.33;;;13.93;;
2123;SDS011;1068;52.460;13.528;2023-05-16T06:33:24;16.90;;;13.83;;
2123;SDS011;1068;52.460;13.528;2023-05-16T06:35:54;15.93;;;14.33;;
2123;SDS011;1068;52.460;13.528;2023-05-16T06:38:21;15.10;;;13.67;;
2123;SDS011;1068;52.460;13.528;2023-05-16T06:40:48;15.13;;;13.70;;
2123;SDS011;1068;52.460;13.528;2023-05-16T06:43:16;13.77;;;12.27;;
2123;SDS011;1068;52.460;13.528;2023-05-16T06:45:43;15.70;;;14.00;;
2123;SDS011;1068;52.460;13.528;2023-05-16T06:48:11;14.33;;;12.93;;
2123;SDS011;1068;52.460;13.528;2023-05-16T06:50:39;15.20;;;13.67;;
2123;SDS011;1068;52.460;13.528;2023-05-16T06:53:17;13.20;;;11.80;;
2123;SDS011;1068;52.460;13.528;2023-05-16T06:55:44;13.80;;;12.37;;
2123;SDS011;1068;52.460;13.528;2023-05-16T06:58:13;13.87;;;12.47;;
2123;SDS011;1068;52.460;13.528;2023-05-16T07:00:40;13.20;;;11.87;;
2123;SDS011;1068;52.460;13.528;2023-05-16T07:03:08;12.83;;;11.50;;
2123;SDS011;1068;52.460;13.528;2023-05-16T07:05:35;11.97;;;10.93;;
2123;SDS011;1068;52.460;13.528;2023-05-16T07:08:01;12.57;;;11.37;;
2123;SDS011;1068;52.460;13.528;2023-05-16T07:10:30;11.17;;;10.17;;
2123;SDS011;1068;52.460;13.528;2023-05-16T07:12:57;13.70;;;10.70;;
2123;SDS011;1068;52.460;13.528;2023-05-16T07:15:25;13.00;;;10.07;;
2123;SDS011;1068;52.460;13.528;2023-05-16T07:17:54;13.00;;;10.90;;
2123;SDS011;1068;52.460;13.528;2023-05-16T07:20:21;10.40;;;9.40;;
2123;SDS011;1068;52.460;13.528;2023-05-16T07:22:48;10.30;;;9.30;;
2123;SDS011;1068;52.460;13.528;2023-05-16T07:25:14;10.90;;;9.80;;
2123;SDS011;1068;52.460;13.528;2023-05-16T07:27:43;10.90;;;9.80;;
2123;SDS011;1068;52.460;13.528;2023-05-16T07:30:11;9.90;;;9.10;;
2123;SDS011;1068;52.460;13.528;2023-05-16T07:32:38;10.47;;;9.10;;
2123;SDS011;1068;52.460;13.528;2023-05-16T07:35:05;8.73;;;8.03;;
2123;SDS011;1068;52.460;13.528;2023-05-16T07:37:33;11.97;;;8.97;;
2123;SDS011;1068;52.460;13.528;2023-05-16T07:40:00;9.73;;;8.00;;
2123;SDS011;1068;52.460;13.528;2023-05-16T07:42:27;9.77;;;8.80;;
2123;SDS011;1068;52.460;13.528;2023-05-16T07:44:55;9.73;;;8.30;;
2123;SDS011;1068;52.460;13.528;2023-05-16T07:47:22;10.90;;;8.63;;
2123;SDS011;1068;52.460;13.528;2023-05-16T07:49:49;7.87;;;6.90;;
2123;SDS011;1068;52.460;13.528;2023-05-16T07:52:16;8.33;;;7.53;;
2123;SDS011;1068;52.460;13.528;2023-05-16T07:54:43;8.83;;;6.80;;
2123;SDS011;1068;52.460;13.528;2023-05-16T07:57:10;8.97;;;6.73;;
2123;SDS011;1068;52.460;13.528;2023-05-16T07:59:37;10.13;;;7.20;;
2123;SDS011;1068;52.460;13.528;2023-05-16T08:02:06;8.20;;;6.70;;
2123;SDS011;1068;52.460;13.528;2023-05-16T08:04:33;6.70;;;6.10;;
2123;SDS011;1068;52.460;13.528;2023-05-16T08:07:00;6.40;;;5.80;;
2123;SDS011;1068;52.460;13.528;2023-05-16T08:09:27;6.27;;;5.70;;
2123;SDS011;1068;52.460;13.528;2023-05-16T08:11:53;6.40;;;5.90;;
2123;SDS011;1068;52.460;13.528;2023-05-16T08:14:20;5.87;;;5.47;;
2123;SDS011;1068;52.460;13.528;2023-05-16T08:16:47;9.27;;;7.10;;
2123;SDS011;1068;52.460;13.528;2023-05-16T08:19:15;6.00;;;5.50;;
2123;SDS011;1068;52.460;13.528;2023-05-16T08:21:42;7.17;;;6.00;;
2123;SDS011;1068;52.460;13.528;2023-05-16T08:24:09;9.43;;;6.70;;
2123;SDS011;1068;52.460;13.528;2023-05-16T08:26:38;7.30;;;6.80;;
2123;SDS011;1068;52.460;13.528;2023-05-16T08:29:05;7.30;;;6.70;;
2123;SDS011;1068;52.460;13.528;2023-05-16T08:31:35;7.73;;;6.93;;
2123;SDS011;1068;52.460;13.528;2023-05-16T08:34:01;7.40;;;6.70;;
2123;SDS011;1068;52.460;13.528;2023-05-16T08:36:31;6.90;;;6.30;;
2123;SDS011;1068;52.460;13.528;2023-05-16T08:38:59;6.97;;;6.30;;
2123;SDS011;1068;52.460;13.528;2023-05-16T08:41:27;6.97;;;5.93;;
2123;SDS011;1068;52.460;13.528;2023-05-16T08:43:54;7.23;;;5.77;;
2123;SDS011;1068;52.460;13.528;2023-05-16T08:46:22;6.23;;;4.77;;
2123;SDS011;1068;52.460;13.528;2023-05-16T08:48:51;6.50;;;5.17;;
2123;SDS011;1068;52.460;13.528;2023-05-16T08:51:18;6.80;;;5.57;;
2123;SDS011;1068;52.460;13.528;2023-05-16T08:53:48;4.80;;;4.40;;
2123;SDS011;1068;52.460;13.528;2023-05-16T08:56:17;7.60;;;4.93;;
2123;SDS011;1068;52.460;13.528;2023-05-16T08:58:46;5.80;;;5.30;;
2123;SDS011;1068;52.460;13.528;2023-05-16T09:01:13;4.13;;;3.80;;
2123;SDS011;1068;52.460;13.528;2023-05-16T09:03:40;3.43;;;3.20;;
2123;SDS011;1068;52.460;13.528;2023-05-16T09:06:08;5.10;;;3.53;;
2123;SDS011;1068;52.460;13.528;2023-05-16T09:08:35;5.03;;;4.40;;
2123;SDS011;1068;52.460;13.528;2023-05-16T09:11:03;4.07;;;3.77;;
2123;SDS011;1068;52.460;13.528;2023-05-16T09:13:30;4.80;;;4.40;;
2123;SDS011;1068;52.460;13.528;2023-05-16T09:16:06;5.40;;;4.40;;
2123;SDS011;1068;52.460;13.528;2023-05-16T09:18:33;7.13;;;5.20;;
2123;SDS011;1068;52.460;13.528;2023-05-16T09:21:01;3.80;;;3.50;;
2123;SDS011;1068;52.460;13.528;2023-05-16T09:23:28;4.50;;;4.20;;
2123;SDS011;1068;52.460;13.528;2023-05-16T09:25:56;5.40;;;4.57;;
2123;SDS011;1068;52.460;13.528;2023-05-16T09:28:25;4.20;;;3.90;;
2123;SDS011;1068;52.460;13.528;2023-05-16T09:30:52;5.90;;;3.77;;
2123;SDS011;1068;52.460;13.528;2023-05-16T09:33:21;5.43;;;3.43;;
2123;SDS011;1068;52.460;13.528;2023-05-16T09:35:53;3.70;;;3.43;;
2123;SDS011;1068;52.460;13.528;2023-05-16T09:38:20;3.93;;;3.63;;
2123;SDS011;1068;52.460;13.528;2023-05-16T09:40:47;3.20;;;2.90;;
2123;SDS011;1068;52.460;13.528;2023-05-16T09:43:16;6.80;;;2.87;;
2123;SDS011;1068;52.460;13.528;2023-05-16T09:45:45;3.57;;;2.57;;
2123;SDS011;1068;52.460;13.528;2023-05-16T09:48:13;2.67;;;2.50;;
2123;SDS011;1068;52.460;13.528;2023-05-16T09:50:40;3.30;;;2.70;;
2123;SDS011;1068;52.460;13.528;2023-05-16T09:53:13;2.70;;;2.30;;
2123;SDS011;1068;52.460;13.528;2023-05-16T09:55:40;3.20;;;2.17;;
2123;SDS011;1068;52.460;13.528;2023-05-16T09:58:07;3.00;;;2.80;;
2123;SDS011;1068;52.460;13.528;2023-05-16T10:00:34;2.90;;;1.83;;
2123;SDS011;1068;52.460;13.528;2023-05-16T10:03:02;3.63;;;2.40;;
2123;SDS011;1068;52.460;13.528;2023-05-16T10:05:29;2.97;;;2.10;;
2123;SDS011;1068;52.460;13.528;2023-05-16T10:07:58;6.03;;;2.70;;
2123;SDS011;1068;52.460;13.528;2023-05-16T10:10:30;2.50;;;2.30;;
2123;SDS011;1068;52.460;13.528;2023-05-16T10:12:57;4.27;;;2.97;;
2123;SDS011;1068;52.460;13.528;2023-05-16T10:15:25;2.47;;;2.27;;
2123;SDS011;1068;52.460;13.528;2023-05-16T10:17:53;4.10;;;2.80;;
2123;SDS011;1068;52.460;13.528;2023-05-16T10:20:24;2.63;;;2.10;;
2123;SDS011;1068;52.460;13.528;2023-05-16T10:22:51;7.93;;;2.40;;
2123;SDS011;1068;52.460;13.528;2023-05-16T10:25:22;4.30;;;2.90;;
2123;SDS011;1068;52.460;13.528;2023-05-16T10:27:51;3.00;;;1.93;;
2123;SDS011;1068;52.460;13.528;2023-05-16T10:30:18;9.77;;;2.60;;
2123;SDS011;1068;52.460;13.528;2023-05-16T10:32:45;2.60;;;1.63;;
2123;SDS011;1068;52.460;13.528;2023-05-16T10:35:13;7.13;;;2.87;;
2123;SDS011;1068;52.460;13.528;2023-05-16T10:37:41;4.30;;;2.10;;
2123;SDS011;1068;52.460;13.528;2023-05-16T10:40:09;3.10;;;1.83;;
2123;SDS011;1068;52.460;13.528;2023-05-16T10:42:36;9.53;;;2.30;;
2123;SDS011;1068;52.460;13.528;2023-05-16T10:45:14;3.43;;;2.00;;
2123;SDS011;1068;52.460;13.528;2023-05-16T10:47:49;2.10;;;2.00;;
2123;SDS011;1068;52.460;13.528;2023-05-16T10:50:29;8.30;;;2.20;;
2123;SDS011;1068;52.460;13.528;2023-05-16T10:53:07;4.97;;;2.00;;
2123;SDS011;1068;52.460;13.528;2023-05-16T10:55:37;5.13;;;2.10;;
2123;SDS011;1068;52.460;13.528;2023-05-16T10:58:04;3.77;;;2.10;;
2123;SDS011;1068;52.460;13.528;2023-05-16T11:00:31;3.97;;;2.10;;
2123;SDS011;1068;52.460;13.528;2023-05-16T11:03:03;7.23;;;2.40;;
2123;SDS011;1068;52.460;13.528;2023-05-16T11:05:30;6.13;;;2.93;;
2123;SDS011;1068;52.460;13.528;2023-05-16T11:08:01;4.60;;;2.90;;
2123;SDS011;1068;52.460;13.528;2023-05-16T11:10:30;3.97;;;2.47;;
2123;SDS011;1068;52.460;13.528;2023-05-16T11:13:01;5.20;;;2.93;;
2123;SDS011;1068;52.460;13.528;2023-05-16T11:15:30;4.30;;;2.40;;
2123;SDS011;1068;52.460;13.528;2023-05-16T11:18:05;4.33;;;2.27;;
2123;SDS011;1068;52.460;13.528;2023-05-16T11:20:32;4.80;;;2.30;;
2123;SDS011;1068;52.460;13.528;2023-05-16T11:23:18;3.87;;;2.40;;
2123;SDS011;1068;52.460;13.528;2023-05-16T11:25:47;3.50;;;3.20;;
2123;SDS011;1068;52.460;13.528;2023-05-16T11:28:16;3.70;;;2.43;;
2123;SDS011;1068;52.460;13.528;2023-05-16T11:30:44;4.87;;;3.10;;
2123;SDS011;1068;52.460;13.528;2023-05-16T11:33:13;5.77;;;2.57;;
2123;SDS011;1068;52.460;13.528;2023-05-16T11:35:40;2.97;;;2.77;;
2123;SDS011;1068;52.460;13.528;2023-05-16T11:38:10;3.03;;;2.50;;
2123;SDS011;1068;52.460;13.528;2023-05-16T11:40:41;5.10;;;2.70;;
2123;SDS011;1068;52.460;13.528;2023-05-16T11:43:09;4.80;;;3.03;;
2123;SDS011;1068;52.460;13.528;2023-05-16T11:45:36;7.00;;;3.27;;
2123;SDS011;1068;52.460;13.528;2023-05-16T11:48:03;3.17;;;2.80;;
2123;SDS011;1068;52.460;13.528;2023-05-16T11:50:33;6.33;;;2.40;;
2123;SDS011;1068;52.460;13.528;2023-05-16T11:53:00;5.80;;;2.30;;
2123;SDS011;1068;52.460;13.528;2023-05-16T11:55:27;3.00;;;2.10;;
2123;SDS011;1068;52.460;13.528;2023-05-16T11:57:55;7.53;;;2.53;;
2123;SDS011;1068;52.460;13.528;2023-05-16T12:00:24;3.33;;;2.20;;
2123;SDS011;1068;52.460;13.528;2023-05-16T12:02:52;9.60;;;2.80;;
2123;SDS011;1068;52.460;13.528;2023-05-16T12:05:19;9.50;;;2.63;;
2123;SDS011;1068;52.460;13.528;2023-05-16T12:07:52;5.80;;;2.10;;
2123;SDS011;1068;52.460;13.528;2023-05-16T12:10:19;2.73;;;2.20;;
2123;SDS011;1068;52.460;13.528;2023-05-16T12:12:48;8.27;;;2.60;;
2123;SDS011;1068;52.460;13.528;2023-05-16T12:15:16;9.17;;;2.80;;
2123;SDS011;1068;52.460;13.528;2023-05-16T12:17:45;3.50;;;2.13;;
2123;SDS011;1068;52.460;13.528;2023-05-16T12:20:12;2.83;;;1.70;;
2123;SDS011;1068;52.460;13.528;2023-05-16T12:22:40;9.13;;;2.80;;
2123;SDS011;1068;52.460;13.528;2023-05-16T12:25:20;2.90;;;1.80;;
2123;SDS011;1068;52.460;13.528;2023-05-16T12:27:47;5.33;;;3.07;;
2123;SDS011;1068;52.460;13.528;2023-05-16T12:30:15;6.13;;;3.50;;
2123;SDS011;1068;52.460;13.528;2023-05-16T12:32:42;9.33;;;4.30;;
2123;SDS011;1068;52.460;13.528;2023-05-16T12:35:11;6.03;;;2.10;;
2123;SDS011;1068;52.460;13.528;2023-05-16T12:37:37;5.47;;;2.13;;
2123;SDS011;1068;52.460;13.528;2023-05-16T12:40:05;3.33;;;1.80;;
2123;SDS011;1068;52.460;13.528;2023-05-16T12:42:32;3.33;;;1.93;;
2123;SDS011;1068;52.460;13.528;2023-05-16T12:45:00;4.87;;;2.47;;
2123;SDS011;1068;52.460;13.528;2023-05-16T12:47:34;9.20;;;1.80;;
2123;SDS011;1068;52.460;13.528;2023-05-16T12:50:07;3.27;;;1.90;;
2123;SDS011;1068;52.460;13.528;2023-05-16T12:52:46;2.87;;;1.80;;
2123;SDS011;1068;52.460;13.528;2023-05-16T12:55:14;9.40;;;2.10;;
2123;SDS011;1068;52.460;13.528;2023-05-16T12:57:41;5.43;;;1.97;;
2123;SDS011;1068;52.460;13.528;2023-05-16T13:00:09;7.90;;;2.67;;
2123;SDS011;1068;52.460;13.528;2023-05-16T13:02:36;4.70;;;2.17;;
2123;SDS011;1068;52.460;13.528;2023-05-16T13:05:04;4.03;;;2.13;;
2123;SDS011;1068;52.460;13.528;2023-05-16T13:07:32;5.20;;;2.37;;
2123;SDS011;1068;52.460;13.528;2023-05-16T13:10:00;3.10;;;1.60;;
2123;SDS011;1068;52.460;13.528;2023-05-16T13:12:28;4.47;;;2.27;;
2123;SDS011;1068;52.460;13.528;2023-05-16T13:14:55;7.83;;;2.03;;
2123;SDS011;1068;52.460;13.528;2023-05-16T13:17:21;6.10;;;1.80;;
2123;SDS011;1068;52.460;13.528;2023-05-16T13:19:48;7.43;;;3.07;;
2123;SDS011;1068;52.460;13.528;2023-05-16T13:22:16;8.47;;;2.00;;
2123;SDS011;1068;52.460;13.528;2023-05-16T13:24:43;3.73;;;1.83;;
2123;SDS011;1068;52.460;13.528;2023-05-16T13:27:14;6.13;;;2.30;;
2123;SDS011;1068;52.460;13.528;2023-05-16T13:29:41;5.80;;;2.30;;
2123;SDS011;1068;52.460;13.528;2023-05-16T13:32:08;9.27;;;2.87;;
2123;SDS011;1068;52.460;13.528;2023-05-16T13:34:35;8.23;;;2.20;;
2123;SDS011;1068;52.460;13.528;2023-05-16T13:37:02;5.03;;;1.80;;
2123;SDS011;1068;52.460;13.528;2023-05-16T13:39:29;5.60;;;1.90;;
2123;SDS011;1068;52.460;13.528;2023-05-16T13:41:56;12.23;;;2.40;;
2123;SDS011;1068;52.460;13.528;2023-05-16T13:44:25;5.63;;;2.03;;
2123;SDS011;1068;52.460;13.528;2023-05-16T13:46:54;4.93;;;1.70;;
2123;SDS011;1068;52.460;13.528;2023-05-16T13:49:21;4.10;;;2.23;;
2123;SDS011;1068;52.460;13.528;2023-05-16T13:51:48;2.93;;;1.60;;
2123;SDS011;1068;52.460;13.528;2023-05-16T13:54:16;7.10;;;2.13;;
2123;SDS011;1068;52.460;13.528;2023-05-16T13:56:43;7.73;;;2.00;;
2123;SDS011;1068;52.460;13.528;2023-05-16T13:59:10;6.30;;;1.60;;
2123;SDS011;1068;52.460;13.528;2023-05-16T14:01:38;7.83;;;2.20;;
2123;SDS011;1068;52.460;13.528;2023-05-16T14:04:05;4.43;;;1.60;;
2123;SDS011;1068;52.460;13.528;2023-05-16T14:06:32;8.20;;;1.87;;
2123;SDS011;1068;52.460;13.528;2023-05-16T14:08:59;6.00;;;1.67;;
2123;SDS011;1068;52.460;13.528;2023-05-16T14:11:27;4.60;;;1.73;;
2123;SDS011;1068;52.460;13.528;2023-05-16T14:13:54;5.30;;;2.40;;
2123;SDS011;1068;52.460;13.528;2023-05-16T14:16:21;5.03;;;2.10;;
2123;SDS011;1068;52.460;13.528;2023-05-16T14:18:49;6.87;;;1.67;;
2123;SDS011;1068;52.460;13.528;2023-05-16T14:21:16;4.90;;;2.03;;
2123;SDS011;1068;52.460;13.528;2023-05-16T14:23:43;5.33;;;1.90;;
2123;SDS011;1068;52.460;13.528;2023-05-16T14:26:10;2.80;;;1.30;;
2123;SDS011;1068;52.460;13.528;2023-05-16T14:28:37;2.40;;;1.30;;
2123;SDS011;1068;52.460;13.528;2023-05-16T14:31:04;6.00;;;1.30;;
2123;SDS011;1068;52.460;13.528;2023-05-16T14:33:31;5.57;;;1.63;;
2123;SDS011;1068;52.460;13.528;2023-05-16T14:35:59;7.47;;;1.70;;
2123;SDS011;1068;52.460;13.528;2023-05-16T14:38:26;9.73;;;1.73;;
2123;SDS011;1068;52.460;13.528;2023-05-16T14:40:53;6.50;;;1.80;;
2123;SDS011;1068;52.460;13.528;2023-05-16T14:43:20;7.90;;;1.50;;
2123;SDS011;1068;52.460;13.528;2023-05-16T14:45:47;4.57;;;1.23;;
2123;SDS011;1068;52.460;13.528;2023-05-16T14:48:13;11.10;;;2.10;;
2123;SDS011;1068;52.460;13.528;2023-05-16T14:50:41;6.07;;;1.40;;
2123;SDS011;1068;52.460;13.528;2023-05-16T14:53:09;2.67;;;1.37;;
2123;SDS011;1068;52.460;13.528;2023-05-16T14:55:36;4.53;;;2.80;;